Sarah Reed — WDC3151 — position and weather

sailwx.info

Track history (hours):
 
Tides and Currents Weather Stations Pressure Air Temp Water Temp Dewpoint Dewpoint Depression Visibility Wind Speed Wind Dir Waves Ship Positions

Sarah Reed

Owner: THE DUTRA GROUP, SAN RAFAEL, CA. More information available from US FCC via Universal Licensing System.

Last reported at 2018-Jan-19 01:00 UTC. Time now 2018-Jan-19 01:28 UTC.
Position N 37°50' W 122°21'.

Length 19 m; draft 3.3 m.

Type: Towing. MMSI: 367003250.

Date/timePositionNaut miles runAvg speedWind from/ knotsBaromVisibWave heightAir tempDewpointWater temp
2018-Jan-19 01:00N 37°50' W 122°21'0 0.0
2018-Jan-19 00:30N 37°50' W 122°21'0 0.0
2018-Jan-19 00:00N 37°50' W 122°21'0 0.0
2018-Jan-18 23:30N 37°50' W 122°21'0 0.1
2018-Jan-18 23:00N 37°50' W 122°21'0 0.0
2018-Jan-18 22:30N 37°50' W 122°21'2 4.7
2018-Jan-18 22:00N 37°51' W 122°23'3 5.8
2018-Jan-18 21:29N 37°54' W 122°25'3 5.7
2018-Jan-18 21:00N 37°57' W 122°26'3 5.7
2018-Jan-18 20:28N 37°60' W 122°26'2 5.0
2018-Jan-18 20:00N 38°02' W 122°26'3 5.4
2018-Jan-18 19:30N 38°05' W 122°26'3 5.1
2018-Jan-18 18:49N 38°07' W 122°30'1 4.5
2018-Jan-18 18:30N 38°08' W 122°31'2 4.8
2018-Jan-18 18:00N 38°10' W 122°33'2 3.4
2018-Jan-18 17:30N 38°11' W 122°33'1 1.3
2018-Jan-18 17:00N 38°12' W 122°33'2 3.7
2018-Jan-18 16:30N 38°13' W 122°35'1 1.8
2018-Jan-18 16:00N 38°13' W 122°36'0 0.0
2018-Jan-18 15:30N 38°13' W 122°36'0 0.0
2018-Jan-18 15:00N 38°13' W 122°36'0 0.0
2018-Jan-18 14:30N 38°13' W 122°36'0 0.0
2018-Jan-18 14:00N 38°13' W 122°36'0 0.0
2018-Jan-18 13:30N 38°13' W 122°36'0 0.0
2018-Jan-18 13:00N 38°13' W 122°36'0 0.0
2018-Jan-18 12:30N 38°13' W 122°36'0 0.0
2018-Jan-18 12:00N 38°13' W 122°36'0 0.0
2018-Jan-18 11:30N 38°13' W 122°36'0 0.0
2018-Jan-18 11:00N 38°13' W 122°36'0 0.0
2018-Jan-18 10:30N 38°13' W 122°36'0 0.0
2018-Jan-18 10:00N 38°13' W 122°36'0 0.0
2018-Jan-18 09:30N 38°13' W 122°36'0 0.0
2018-Jan-18 09:00N 38°13' W 122°36'0 0.0
2018-Jan-18 08:30N 38°13' W 122°36'0 0.0
2018-Jan-18 07:59N 38°13' W 122°36'0 0.0
2018-Jan-18 07:30N 38°13' W 122°36'0 0.0
2018-Jan-18 07:00N 38°13' W 122°36'0 0.0
2018-Jan-18 06:30N 38°13' W 122°36'0 0.0
2018-Jan-18 06:00N 38°13' W 122°36'0 0.0
2018-Jan-18 05:30N 38°13' W 122°36'0 0.0
2018-Jan-18 05:00N 38°13' W 122°36'0 0.0
2018-Jan-18 04:30N 38°13' W 122°36'0 0.0
2018-Jan-18 04:00N 38°13' W 122°36'0 0.0
2018-Jan-18 03:30N 38°13' W 122°36'0 0.0
2018-Jan-18 03:00N 38°13' W 122°36'0 0.0
2018-Jan-18 02:30N 38°13' W 122°36'0 0.0
2018-Jan-18 02:00N 38°13' W 122°36'0 0.0
2018-Jan-18 01:30N 38°13' W 122°36'0 0.0
2018-Jan-18 01:00N 38°13' W 122°36'0 0.0
2018-Jan-18 00:00N 38°13' W 122°36'0 0.0
2018-Jan-17 23:58N 38°13' W 122°36'  
2018-Jan-12 15:00N 37°50' W 122°21'0 0.1
2018-Jan-12 14:30N 37°50' W 122°21'0 0.1
2018-Jan-12 14:00N 37°50' W 122°21'0 0.0
2018-Jan-12 13:30N 37°50' W 122°21'0 0.1
2018-Jan-12 13:00N 37°50' W 122°21'0 0.1
2018-Jan-12 12:30N 37°50' W 122°21'0 0.7
2018-Jan-12 12:00N 37°50' W 122°21'0 0.1
2018-Jan-12 11:30N 37°50' W 122°21'0 0.0
2018-Jan-12 11:00N 37°50' W 122°21'0 0.3
2018-Jan-12 10:31N 37°50' W 122°21'2 4.4
2018-Jan-12 10:00N 37°49' W 122°19'1 1.5
2018-Jan-12 09:31N 37°49' W 122°19'1 2.2
2018-Jan-12 09:01N 37°48' W 122°19'1 1.9
2018-Jan-12 08:31N 37°48' W 122°18'0 0.2
2018-Jan-12 08:00N 37°48' W 122°18'0 0.2
2018-Jan-12 07:30N 37°47' W 122°18'0 0.2
2018-Jan-12 07:01N 37°48' W 122°18'0 0.0
2018-Jan-12 06:31N 37°48' W 122°18'0 0.0
2018-Jan-12 06:00N 37°48' W 122°18'0 0.0
2018-Jan-12 05:31N 37°48' W 122°18'0 0.0
2018-Jan-12 05:00N 37°48' W 122°18'0 0.5
2018-Jan-12 04:31N 37°48' W 122°18'0 0.8
2018-Jan-12 04:01N 37°48' W 122°18'0 0.5
2018-Jan-12 03:30N 37°48' W 122°18'0 0.4
2018-Jan-12 03:00N 37°47' W 122°18'0 0.2
2018-Jan-12 02:30N 37°47' W 122°18'0 0.1
2018-Jan-12 02:00N 37°47' W 122°18'0 0.3
2018-Jan-12 01:30N 37°47' W 122°18'0 0.3
2018-Jan-12 01:00N 37°48' W 122°18'0 0.0
2018-Jan-12 00:30N 37°48' W 122°18'0 0.2
2018-Jan-12 00:00N 37°48' W 122°18'0 0.4
2018-Jan-11 23:30N 37°48' W 122°18'1 1.3
2018-Jan-11 23:00N 37°48' W 122°19'1 2.2
2018-Jan-11 22:30N 37°48' W 122°20'2 3.4
2018-Jan-11 22:01N 37°47' W 122°18'0 0.3
2018-Jan-11 21:30N 37°47' W 122°18'0 0.3
2018-Jan-11 21:00N 37°47' W 122°18'0 0.5
2018-Jan-11 20:30N 37°47' W 122°18'0 0.2
2018-Jan-11 20:01N 37°48' W 122°18'0 0.2
2018-Jan-11 19:31N 37°48' W 122°18'0 0.9
2018-Jan-11 19:01N 37°48' W 122°19'2 3.9
2018-Jan-11 18:31N 37°48' W 122°21'0 0.0
2018-Jan-11 18:00N 37°48' W 122°21'0 0.0
2018-Jan-11 17:30N 37°48' W 122°21'0 0.3
2018-Jan-11 17:00N 37°48' W 122°21'0 0.0
2018-Jan-11 16:30N 37°48' W 122°21'0 0.0
2018-Jan-11 16:00N 37°48' W 122°21'0 0.0
2018-Jan-11 15:30N 37°48' W 122°21'0 0.0
2018-Jan-11 15:00N 37°48' W 122°21'0 0.0
2018-Jan-11 14:30N 37°48' W 122°21'0 0.7
2018-Jan-11 14:00N 37°48' W 122°21'0 0.4
2018-Jan-11 13:30N 37°48' W 122°21'0 0.1
2018-Jan-11 13:00N 37°48' W 122°21'0 0.1
2018-Jan-11 12:30N 37°48' W 122°21'0 0.3
2018-Jan-11 12:00N 37°48' W 122°21'0 0.9
2018-Jan-11 11:30N 37°48' W 122°21'0 0.0
2018-Jan-11 11:00N 37°48' W 122°21'0 0.1
2018-Jan-11 10:30N 37°48' W 122°21'0 0.2
2018-Jan-11 10:00N 37°48' W 122°21'0 0.1
2018-Jan-11 09:30N 37°48' W 122°21'0 0.7
2018-Jan-11 09:00N 37°48' W 122°21'0 0.2
2018-Jan-11 08:30N 37°48' W 122°21'0 0.2
2018-Jan-11 08:00N 37°48' W 122°21'0 0.1
2018-Jan-11 07:30N 37°48' W 122°21'0 0.1
2018-Jan-11 07:00N 37°48' W 122°21'0 0.0
2018-Jan-11 06:30N 37°48' W 122°21'0 0.0
2018-Jan-11 06:01N 37°48' W 122°21'0 0.0
2018-Jan-11 05:30N 37°48' W 122°21'0 0.0
2018-Jan-11 05:00N 37°48' W 122°21'0 0.2
2018-Jan-11 04:30N 37°48' W 122°21'0 0.1
2018-Jan-11 04:00N 37°48' W 122°21'0 0.0
2018-Jan-11 03:30N 37°48' W 122°21'0 0.3
2018-Jan-11 03:00N 37°48' W 122°21'0 0.5
2018-Jan-11 02:30N 37°48' W 122°21'0 0.1
2018-Jan-11 02:00N 37°48' W 122°21'0 0.5
2018-Jan-11 01:30N 37°48' W 122°21'0 0.6
2018-Jan-11 01:00N 37°48' W 122°21'0 0.5
2018-Jan-11 00:30N 37°48' W 122°21'0 0.7
2018-Jan-11 00:00N 37°48' W 122°21'0 0.7
2018-Jan-10 23:30N 37°48' W 122°21'0 0.8
2018-Jan-10 23:00N 37°49' W 122°21'2 3.4
2018-Jan-10 22:30N 37°49' W 122°19'0 0.3
2018-Jan-10 22:00N 37°49' W 122°19'2 4.2
2018-Jan-10 21:30N 37°49' W 122°21'3 6.5
2018-Jan-10 21:00N 37°52' W 122°23'3 5.1
2018-Jan-10 20:30N 37°54' W 122°23'1 1.3
2018-Jan-10 20:00N 37°54' W 122°22'0 0.0
2018-Jan-10 19:30N 37°54' W 122°22'0 0.0
2018-Jan-10 19:00N 37°54' W 122°22'0 0.1
2018-Jan-10 18:30N 37°54' W 122°22'0 0.0
2018-Jan-10 18:00N 37°54' W 122°22'1 1.5
2018-Jan-10 17:30N 37°54' W 122°23'2 4.4
2018-Jan-10 17:00N 37°52' W 122°24'4 8.0
2018-Jan-10 16:30N 37°49' W 122°21'2 4.5
2018-Jan-10 16:00N 37°49' W 122°19'0 0.0
2018-Jan-10 15:30N 37°49' W 122°19'2 3.9
2018-Jan-10 15:00N 37°48' W 122°21'0 0.1
2018-Jan-10 14:30N 37°48' W 122°21'0 0.1
2018-Jan-10 14:00N 37°48' W 122°21'0 0.3
2018-Jan-10 13:30N 37°48' W 122°21'0 0.2
2018-Jan-10 13:00N 37°48' W 122°21'0 0.1
2018-Jan-10 12:30N 37°48' W 122°21'0 0.8
2018-Jan-10 12:00N 37°48' W 122°21'0 0.0
2018-Jan-10 11:31N 37°48' W 122°21'0 0.0
2018-Jan-10 11:00N 37°48' W 122°21'0 0.8
2018-Jan-10 10:31N 37°48' W 122°21'0 0.1
2018-Jan-10 10:00N 37°48' W 122°21'0 0.0
2018-Jan-10 09:30N 37°48' W 122°21'0 0.1
2018-Jan-10 09:00N 37°48' W 122°21'0 0.1
2018-Jan-10 08:31N 37°48' W 122°21'0 0.4
2018-Jan-10 08:00N 37°48' W 122°21'0 0.3
2018-Jan-10 07:31N 37°48' W 122°21'0 0.1
2018-Jan-10 07:01N 37°48' W 122°21'0 0.1
2018-Jan-10 06:31N 37°48' W 122°21'0 0.2
2018-Jan-10 06:01N 37°48' W 122°21'0 0.1
2018-Jan-10 05:30N 37°48' W 122°21'0 0.1
2018-Jan-10 05:00N 37°48' W 122°21'0 0.2
2018-Jan-10 04:30N 37°48' W 122°21'0 0.1
2018-Jan-10 04:00N 37°48' W 122°21'0 0.7
2018-Jan-10 03:30N 37°48' W 122°21'0 0.4
2018-Jan-10 03:00N 37°48' W 122°21'0 0.0
2018-Jan-10 02:30N 37°48' W 122°21'0 0.7
2018-Jan-10 02:00N 37°48' W 122°21'0 0.4
2018-Jan-10 01:30N 37°48' W 122°21'0 0.4
2018-Jan-10 01:00N 37°48' W 122°21'0 0.1
2018-Jan-10 00:30N 37°48' W 122°21'0 0.4
2018-Jan-10 00:00N 37°48' W 122°21'0 0.4
2018-Jan-09 23:30N 37°48' W 122°21'0 0.2
2018-Jan-09 23:00N 37°48' W 122°21'0 0.3
2018-Jan-09 22:30N 37°48' W 122°21'0 0.4
2018-Jan-09 22:00N 37°48' W 122°21'0 0.4
2018-Jan-09 21:31N 37°48' W 122°21'0 0.2
2018-Jan-09 21:01N 37°48' W 122°21'0 0.2
2018-Jan-09 20:30N 37°48' W 122°21'0 0.4
2018-Jan-09 20:01N 37°48' W 122°21'0 0.3
2018-Jan-09 19:30N 37°48' W 122°21'0 0.6
2018-Jan-09 19:00N 37°48' W 122°21'0 0.5
2018-Jan-09 18:30N 37°48' W 122°21'0 0.3
2018-Jan-09 18:01N 37°48' W 122°21'0 0.0
2018-Jan-09 17:30N 37°48' W 122°21'0 0.8
2018-Jan-09 17:00N 37°48' W 122°21'0 0.3
2018-Jan-09 16:30N 37°48' W 122°21'0 0.4
2018-Jan-09 16:00N 37°48' W 122°21'0 0.0
2018-Jan-09 15:30N 37°48' W 122°21'0 0.1
2018-Jan-09 15:00N 37°48' W 122°21'0 0.1
2018-Jan-09 14:30N 37°48' W 122°21'0 0.3
2018-Jan-09 14:01N 37°48' W 122°21'0 0.2
2018-Jan-09 13:30N 37°48' W 122°21'0 0.2
2018-Jan-09 13:00N 37°48' W 122°21'0 0.0
2018-Jan-09 12:31N 37°48' W 122°21'0 0.4
2018-Jan-09 12:01N 37°48' W 122°21'0 0.3
2018-Jan-09 11:30N 37°48' W 122°21'0 0.2
2018-Jan-09 11:01N 37°48' W 122°21'0 0.5
2018-Jan-09 10:30N 37°48' W 122°21'0 0.1
2018-Jan-09 10:00N 37°48' W 122°21'0 0.1
2018-Jan-09 09:30N 37°48' W 122°21'0 0.7
2018-Jan-09 09:00N 37°48' W 122°21'0 0.5
2018-Jan-09 08:30N 37°48' W 122°21'0 0.1
2018-Jan-09 08:01N 37°48' W 122°21'0 0.2
2018-Jan-09 07:30N 37°48' W 122°21'0 0.8
2018-Jan-09 07:00N 37°48' W 122°21'0 0.0
2018-Jan-09 06:31N 37°48' W 122°21'0 0.1
2018-Jan-09 06:00N 37°48' W 122°21'0 0.8
2018-Jan-09 05:31N 37°48' W 122°21'0 0.5
2018-Jan-09 05:01N 37°48' W 122°21'0 0.0
2018-Jan-09 04:30N 37°48' W 122°21'0 0.4
2018-Jan-09 04:00N 37°48' W 122°21'0 0.3
2018-Jan-09 03:30N 37°48' W 122°21'0 0.2
2018-Jan-09 03:00N 37°48' W 122°21'0 0.2
2018-Jan-09 02:31N 37°48' W 122°21'0 0.1
2018-Jan-09 02:01N 37°48' W 122°21'0 0.3
2018-Jan-09 01:30N 37°48' W 122°21'0 0.1
2018-Jan-09 01:00N 37°48' W 122°21'  
Track history (hours):
 
Tides and Currents Weather Stations Pressure Air Temp Water Temp Dewpoint Dewpoint Depression Visibility Wind Speed Wind Dir Waves Ship Positions

Sarah Reed

Owner: THE DUTRA GROUP, SAN RAFAEL, CA. More information available from US FCC via Universal Licensing System.

Last reported at 2018-Jan-19 01:00 UTC. Time now 2018-Jan-19 01:28 UTC.
Position N 37°50' W 122°21'.

Length 19 m; draft 3.3 m.

Type: Towing. MMSI: 367003250.

Date/timePositionNaut miles runAvg speedWind from/ knotsBaromVisibWave heightAir tempDewpointWater temp
2018-Jan-19 01:00N 37°50' W 122°21'0 0.0
2018-Jan-19 00:30N 37°50' W 122°21'0 0.0
2018-Jan-19 00:00N 37°50' W 122°21'0 0.0
2018-Jan-18 23:30N 37°50' W 122°21'0 0.1
2018-Jan-18 23:00N 37°50' W 122°21'0 0.0
2018-Jan-18 22:30N 37°50' W 122°21'2 4.7
2018-Jan-18 22:00N 37°51' W 122°23'3 5.8
2018-Jan-18 21:29N 37°54' W 122°25'3 5.7
2018-Jan-18 21:00N 37°57' W 122°26'3 5.7
2018-Jan-18 20:28N 37°60' W 122°26'2 5.0
2018-Jan-18 20:00N 38°02' W 122°26'3 5.4
2018-Jan-18 19:30N 38°05' W 122°26'3 5.1
2018-Jan-18 18:49N 38°07' W 122°30'1 4.5
2018-Jan-18 18:30N 38°08' W 122°31'2 4.8
2018-Jan-18 18:00N 38°10' W 122°33'2 3.4
2018-Jan-18 17:30N 38°11' W 122°33'1 1.3
2018-Jan-18 17:00N 38°12' W 122°33'2 3.7
2018-Jan-18 16:30N 38°13' W 122°35'1 1.8
2018-Jan-18 16:00N 38°13' W 122°36'0 0.0
2018-Jan-18 15:30N 38°13' W 122°36'0 0.0
2018-Jan-18 15:00N 38°13' W 122°36'0 0.0
2018-Jan-18 14:30N 38°13' W 122°36'0 0.0
2018-Jan-18 14:00N 38°13' W 122°36'0 0.0
2018-Jan-18 13:30N 38°13' W 122°36'0 0.0
2018-Jan-18 13:00N 38°13' W 122°36'0 0.0
2018-Jan-18 12:30N 38°13' W 122°36'0 0.0
2018-Jan-18 12:00N 38°13' W 122°36'0 0.0
2018-Jan-18 11:30N 38°13' W 122°36'0 0.0
2018-Jan-18 11:00N 38°13' W 122°36'0 0.0
2018-Jan-18 10:30N 38°13' W 122°36'0 0.0
2018-Jan-18 10:00N 38°13' W 122°36'0 0.0
2018-Jan-18 09:30N 38°13' W 122°36'0 0.0
2018-Jan-18 09:00N 38°13' W 122°36'0 0.0
2018-Jan-18 08:30N 38°13' W 122°36'0 0.0
2018-Jan-18 07:59N 38°13' W 122°36'0 0.0
2018-Jan-18 07:30N 38°13' W 122°36'0 0.0
2018-Jan-18 07:00N 38°13' W 122°36'0 0.0
2018-Jan-18 06:30N 38°13' W 122°36'0 0.0
2018-Jan-18 06:00N 38°13' W 122°36'0 0.0
2018-Jan-18 05:30N 38°13' W 122°36'0 0.0
2018-Jan-18 05:00N 38°13' W 122°36'0 0.0
2018-Jan-18 04:30N 38°13' W 122°36'0 0.0
2018-Jan-18 04:00N 38°13' W 122°36'0 0.0
2018-Jan-18 03:30N 38°13' W 122°36'0 0.0
2018-Jan-18 03:00N 38°13' W 122°36'0 0.0
2018-Jan-18 02:30N 38°13' W 122°36'0 0.0
2018-Jan-18 02:00N 38°13' W 122°36'0 0.0
2018-Jan-18 01:30N 38°13' W 122°36'0 0.0
2018-Jan-18 01:00N 38°13' W 122°36'0 0.0
2018-Jan-18 00:00N 38°13' W 122°36'0 0.0
2018-Jan-17 23:58N 38°13' W 122°36'  
2018-Jan-12 15:00N 37°50' W 122°21'0 0.1
2018-Jan-12 14:30N 37°50' W 122°21'0 0.1
2018-Jan-12 14:00N 37°50' W 122°21'0 0.0
2018-Jan-12 13:30N 37°50' W 122°21'0 0.1
2018-Jan-12 13:00N 37°50' W 122°21'0 0.1
2018-Jan-12 12:30N 37°50' W 122°21'0 0.7
2018-Jan-12 12:00N 37°50' W 122°21'0 0.1
2018-Jan-12 11:30N 37°50' W 122°21'0 0.0
2018-Jan-12 11:00N 37°50' W 122°21'0 0.3
2018-Jan-12 10:31N 37°50' W 122°21'2 4.4
2018-Jan-12 10:00N 37°49' W 122°19'1 1.5
2018-Jan-12 09:31N 37°49' W 122°19'1 2.2
2018-Jan-12 09:01N 37°48' W 122°19'1 1.9
2018-Jan-12 08:31N 37°48' W 122°18'0 0.2
2018-Jan-12 08:00N 37°48' W 122°18'0 0.2
2018-Jan-12 07:30N 37°47' W 122°18'0 0.2
2018-Jan-12 07:01N 37°48' W 122°18'0 0.0
2018-Jan-12 06:31N 37°48' W 122°18'0 0.0
2018-Jan-12 06:00N 37°48' W 122°18'0 0.0
2018-Jan-12 05:31N 37°48' W 122°18'0 0.0
2018-Jan-12 05:00N 37°48' W 122°18'0 0.5
2018-Jan-12 04:31N 37°48' W 122°18'0 0.8
2018-Jan-12 04:01N 37°48' W 122°18'0 0.5
2018-Jan-12 03:30N 37°48' W 122°18'0 0.4
2018-Jan-12 03:00N 37°47' W 122°18'0 0.2
2018-Jan-12 02:30N 37°47' W 122°18'0 0.1
2018-Jan-12 02:00N 37°47' W 122°18'0 0.3
2018-Jan-12 01:30N 37°47' W 122°18'0 0.3
2018-Jan-12 01:00N 37°48' W 122°18'0 0.0
2018-Jan-12 00:30N 37°48' W 122°18'0 0.2
2018-Jan-12 00:00N 37°48' W 122°18'0 0.4
2018-Jan-11 23:30N 37°48' W 122°18'1 1.3
2018-Jan-11 23:00N 37°48' W 122°19'1 2.2
2018-Jan-11 22:30N 37°48' W 122°20'2 3.4
2018-Jan-11 22:01N 37°47' W 122°18'0 0.3
2018-Jan-11 21:30N 37°47' W 122°18'0 0.3
2018-Jan-11 21:00N 37°47' W 122°18'0 0.5
2018-Jan-11 20:30N 37°47' W 122°18'0 0.2
2018-Jan-11 20:01N 37°48' W 122°18'0 0.2
2018-Jan-11 19:31N 37°48' W 122°18'0 0.9
2018-Jan-11 19:01N 37°48' W 122°19'2 3.9
2018-Jan-11 18:31N 37°48' W 122°21'0 0.0
2018-Jan-11 18:00N 37°48' W 122°21'0 0.0
2018-Jan-11 17:30N 37°48' W 122°21'0 0.3
2018-Jan-11 17:00N 37°48' W 122°21'0 0.0
2018-Jan-11 16:30N 37°48' W 122°21'0 0.0
2018-Jan-11 16:00N 37°48' W 122°21'0 0.0
2018-Jan-11 15:30N 37°48' W 122°21'0 0.0
2018-Jan-11 15:00N 37°48' W 122°21'0 0.0
2018-Jan-11 14:30N 37°48' W 122°21'0 0.7
2018-Jan-11 14:00N 37°48' W 122°21'0 0.4
2018-Jan-11 13:30N 37°48' W 122°21'0 0.1
2018-Jan-11 13:00N 37°48' W 122°21'0 0.1
2018-Jan-11 12:30N 37°48' W 122°21'0 0.3
2018-Jan-11 12:00N 37°48' W 122°21'0 0.9
2018-Jan-11 11:30N 37°48' W 122°21'0 0.0
2018-Jan-11 11:00N 37°48' W 122°21'0 0.1
2018-Jan-11 10:30N 37°48' W 122°21'0 0.2
2018-Jan-11 10:00N 37°48' W 122°21'0 0.1
2018-Jan-11 09:30N 37°48' W 122°21'0 0.7
2018-Jan-11 09:00N 37°48' W 122°21'0 0.2
2018-Jan-11 08:30N 37°48' W 122°21'0 0.2
2018-Jan-11 08:00N 37°48' W 122°21'0 0.1
2018-Jan-11 07:30N 37°48' W 122°21'0 0.1
2018-Jan-11 07:00N 37°48' W 122°21'0 0.0
2018-Jan-11 06:30N 37°48' W 122°21'0 0.0
2018-Jan-11 06:01N 37°48' W 122°21'0 0.0
2018-Jan-11 05:30N 37°48' W 122°21'0 0.0
2018-Jan-11 05:00N 37°48' W 122°21'0 0.2
2018-Jan-11 04:30N 37°48' W 122°21'0 0.1
2018-Jan-11 04:00N 37°48' W 122°21'0 0.0
2018-Jan-11 03:30N 37°48' W 122°21'0 0.3
2018-Jan-11 03:00N 37°48' W 122°21'0 0.5
2018-Jan-11 02:30N 37°48' W 122°21'0 0.1
2018-Jan-11 02:00N 37°48' W 122°21'0 0.5
2018-Jan-11 01:30N 37°48' W 122°21'0 0.6
2018-Jan-11 01:00N 37°48' W 122°21'0 0.5
2018-Jan-11 00:30N 37°48' W 122°21'0 0.7
2018-Jan-11 00:00N 37°48' W 122°21'0 0.7
2018-Jan-10 23:30N 37°48' W 122°21'0 0.8
2018-Jan-10 23:00N 37°49' W 122°21'2 3.4
2018-Jan-10 22:30N 37°49' W 122°19'0 0.3
2018-Jan-10 22:00N 37°49' W 122°19'2 4.2
2018-Jan-10 21:30N 37°49' W 122°21'3 6.5
2018-Jan-10 21:00N 37°52' W 122°23'3 5.1
2018-Jan-10 20:30N 37°54' W 122°23'1 1.3
2018-Jan-10 20:00N 37°54' W 122°22'0 0.0
2018-Jan-10 19:30N 37°54' W 122°22'0 0.0
2018-Jan-10 19:00N 37°54' W 122°22'0 0.1
2018-Jan-10 18:30N 37°54' W 122°22'0 0.0
2018-Jan-10 18:00N 37°54' W 122°22'1 1.5
2018-Jan-10 17:30N 37°54' W 122°23'2 4.4
2018-Jan-10 17:00N 37°52' W 122°24'4 8.0
2018-Jan-10 16:30N 37°49' W 122°21'2 4.5
2018-Jan-10 16:00N 37°49' W 122°19'0 0.0
2018-Jan-10 15:30N 37°49' W 122°19'2 3.9
2018-Jan-10 15:00N 37°48' W 122°21'0 0.1
2018-Jan-10 14:30N 37°48' W 122°21'0 0.1
2018-Jan-10 14:00N 37°48' W 122°21'0 0.3
2018-Jan-10 13:30N 37°48' W 122°21'0 0.2
2018-Jan-10 13:00N 37°48' W 122°21'0 0.1
2018-Jan-10 12:30N 37°48' W 122°21'0 0.8
2018-Jan-10 12:00N 37°48' W 122°21'0 0.0
2018-Jan-10 11:31N 37°48' W 122°21'0 0.0
2018-Jan-10 11:00N 37°48' W 122°21'0 0.8
2018-Jan-10 10:31N 37°48' W 122°21'0 0.1
2018-Jan-10 10:00N 37°48' W 122°21'0 0.0
2018-Jan-10 09:30N 37°48' W 122°21'0 0.1
2018-Jan-10 09:00N 37°48' W 122°21'0 0.1
2018-Jan-10 08:31N 37°48' W 122°21'0 0.4
2018-Jan-10 08:00N 37°48' W 122°21'0 0.3
2018-Jan-10 07:31N 37°48' W 122°21'0 0.1
2018-Jan-10 07:01N 37°48' W 122°21'0 0.1
2018-Jan-10 06:31N 37°48' W 122°21'0 0.2
2018-Jan-10 06:01N 37°48' W 122°21'0 0.1
2018-Jan-10 05:30N 37°48' W 122°21'0 0.1
2018-Jan-10 05:00N 37°48' W 122°21'0 0.2
2018-Jan-10 04:30N 37°48' W 122°21'0 0.1
2018-Jan-10 04:00N 37°48' W 122°21'0 0.7
2018-Jan-10 03:30N 37°48' W 122°21'0 0.4
2018-Jan-10 03:00N 37°48' W 122°21'0 0.0
2018-Jan-10 02:30N 37°48' W 122°21'0 0.7
2018-Jan-10 02:00N 37°48' W 122°21'0 0.4
2018-Jan-10 01:30N 37°48' W 122°21'0 0.4
2018-Jan-10 01:00N 37°48' W 122°21'0 0.1
2018-Jan-10 00:30N 37°48' W 122°21'0 0.4
2018-Jan-10 00:00N 37°48' W 122°21'0 0.4
2018-Jan-09 23:30N 37°48' W 122°21'0 0.2
2018-Jan-09 23:00N 37°48' W 122°21'0 0.3
2018-Jan-09 22:30N 37°48' W 122°21'0 0.4
2018-Jan-09 22:00N 37°48' W 122°21'0 0.4
2018-Jan-09 21:31N 37°48' W 122°21'0 0.2
2018-Jan-09 21:01N 37°48' W 122°21'0 0.2
2018-Jan-09 20:30N 37°48' W 122°21'0 0.4
2018-Jan-09 20:01N 37°48' W 122°21'0 0.3
2018-Jan-09 19:30N 37°48' W 122°21'0 0.6
2018-Jan-09 19:00N 37°48' W 122°21'0 0.5
2018-Jan-09 18:30N 37°48' W 122°21'0 0.3
2018-Jan-09 18:01N 37°48' W 122°21'0 0.0
2018-Jan-09 17:30N 37°48' W 122°21'0 0.8
2018-Jan-09 17:00N 37°48' W 122°21'0 0.3
2018-Jan-09 16:30N 37°48' W 122°21'0 0.4
2018-Jan-09 16:00N 37°48' W 122°21'0 0.0
2018-Jan-09 15:30N 37°48' W 122°21'0 0.1
2018-Jan-09 15:00N 37°48' W 122°21'0 0.1
2018-Jan-09 14:30N 37°48' W 122°21'0 0.3
2018-Jan-09 14:01N 37°48' W 122°21'0 0.2
2018-Jan-09 13:30N 37°48' W 122°21'0 0.2
2018-Jan-09 13:00N 37°48' W 122°21'0 0.0
2018-Jan-09 12:31N 37°48' W 122°21'0 0.4
2018-Jan-09 12:01N 37°48' W 122°21'0 0.3
2018-Jan-09 11:30N 37°48' W 122°21'0 0.2
2018-Jan-09 11:01N 37°48' W 122°21'0 0.5
2018-Jan-09 10:30N 37°48' W 122°21'0 0.1
2018-Jan-09 10:00N 37°48' W 122°21'0 0.1
2018-Jan-09 09:30N 37°48' W 122°21'0 0.7
2018-Jan-09 09:00N 37°48' W 122°21'0 0.5
2018-Jan-09 08:30N 37°48' W 122°21'0 0.1
2018-Jan-09 08:01N 37°48' W 122°21'0 0.2
2018-Jan-09 07:30N 37°48' W 122°21'0 0.8
2018-Jan-09 07:00N 37°48' W 122°21'0 0.0
2018-Jan-09 06:31N 37°48' W 122°21'0 0.1
2018-Jan-09 06:00N 37°48' W 122°21'0 0.8
2018-Jan-09 05:31N 37°48' W 122°21'0 0.5
2018-Jan-09 05:01N 37°48' W 122°21'0 0.0
2018-Jan-09 04:30N 37°48' W 122°21'0 0.4
2018-Jan-09 04:00N 37°48' W 122°21'0 0.3
2018-Jan-09 03:30N 37°48' W 122°21'0 0.2
2018-Jan-09 03:00N 37°48' W 122°21'0 0.2
2018-Jan-09 02:31N 37°48' W 122°21'0 0.1
2018-Jan-09 02:01N 37°48' W 122°21'0 0.3
2018-Jan-09 01:30N 37°48' W 122°21'0 0.1
2018-Jan-09 01:00N 37°48' W 122°21'  

Dump ship's entire track history